TAF and METAR

Decoding for American and Canadian METARs and TAFs is not fully implemented.

Could not understand the following METAR

MMNL 192042Z 36006KT 10SM SKC 32/20 A2972 RMK SLP047 56024 954

TAF for Quetzalcóatl International Airport

TAF MMNL 191721Z 1918/2018 32010KT P6SM SKC FM200600 12010KT P6SM SKC FM201200 00000KT 5SM HZ BKN015
Report created 19. okt 19:21

between 19. okt 20:00 - 20. okt 20:00

wind 10 knots from NW (320°)
Quetzalcóatl International Airport in Mexico at 148m

Latest 5 airports